Mount Vernon, KY (40456)

1:10 AM EST on March 02, 2015 (GMT -0500)
Denny Subdivision | Change Station
CLOSE
Current Station
Personal Weather Station
Location: Mount Vernon, KY
Elevation: 1181 ft
Nearby Weather Stations

Elev 1181 ft 37.31 °N, 84.39 °W | Updated 31 seconds ago

Overcast
Overcast
36.5 °F
Feels Like 33 °F
N
4.3
Wind Variable Wind from NNW
Gusts 4.3 mph

Today
High -- | Low -- °F
--% Chance of Precip.
Yesterday
High -- | Low -- °F
Precip. -- in
7:07 AM 6:32 PM
Waxing Gibbous, 89% visible
Pressure 30.29 in
Visibility 3.0 miles
Clouds Scattered Clouds 400 ft
Mostly Cloudy 1600 ft
Overcast 2200 ft
Windchill 33 °F
Dew Point 36 °F
Humidity 98%
Rainfall 0.11 in
Snow Depth Not available.
UV 0 out of 12
Pollen .60 out of 12
Air Quality Not available.
Flu Activity Not available.
SPECI KLOZ 020604Z AUTO 32004KT 3SM RA BR SCT004 BKN016 OVC022 06/03 A3029 RMK AO2 P0003 T00560033

More Conditions Fewer Conditions

Pressure 30.29 in
Visibility 3.0 miles
Clouds Scattered Clouds 400 ft
Mostly Cloudy 1600 ft
Overcast 2200 ft
Windchill 33 °F
Dew Point 36 °F
Humidity 98%
Rainfall 0.11 in
Snow Depth Not available.
UV 0 out of 12
Pollen .60 out of 12
Air Quality Not available.
Flu Activity Not available.
SPECI KLOZ 020604Z AUTO 32004KT 3SM RA BR SCT004 BKN016 OVC022 06/03 A3029 RMK AO2 P0003 T00560033

More Conditions Fewer Conditions

10-Day Weather Forecast

Almanac

Astronomy

Mar. 02, 2015 Rise Set
Actual Time
Civil Twilight
Nautical Twilight
Astronomical Twilight
Moon
Length of Visible Light
Length of Day
Tomorrow will be .
, % of the Moon is Illuminated

Today's Extremes

State Highs State Lows

Community

WunderPhotos

Upload Photos

1,801,738 photos uploaded!

WunderBlogs® & News

Nearby

Air Quality

  Air Quality AQ Index Pollutant
Not available.

Snow Depth

Station Depth Elevation

Earthquake Activity

City Distance Mag. Time & Date
Minimum magnitude displayed is 2.5.

Coastal Water Temperatures

Place Temperature

Nearby Weather Stations